Time;durP1;ratioP1;P1;durP2;ratioP2;P2;SDS_P1;SDS_P2;PMS_P1;PMS_P2;Temp;Humidity;BMP_temperature;BMP_pressure;BME280_temperature;BME280_humidity;BME280_pressure;Samples;Min_cycle;Max_cycle;Signal;HPM_P1;HPM_P2
2022/02/15 00:00:33;;;;;;;8.25;2.60;;;;;;;;;;4988778;28;20604;-70
2022/02/15 00:02:59;;;;;;;6.68;2.70;;;;;;;;;;4989156;28;20039;-70
2022/02/15 00:05:25;;;;;;;5.47;2.10;;;;;;;;;;4982225;28;20401;-70
2022/02/15 00:07:51;;;;;;;5.88;2.67;;;;;;;;;;4988892;28;20030;-69
2022/02/15 00:10:17;;;;;;;5.28;2.63;;;;;;;;;;4984924;28;20042;-71
2022/02/15 00:12:43;;;;;;;6.30;2.70;;;;;;;;;;4982625;28;20520;-70
2022/02/15 00:15:11;;;;;;;5.35;2.38;;;;;;;;;;4982778;28;20129;-71
2022/02/15 00:17:38;;;;;;;6.07;2.78;;;;;;;;;;4991076;28;20030;-70
2022/02/15 00:20:05;;;;;;;7.43;2.25;;;;;;;;;;4988156;28;20023;-71
2022/02/15 00:22:31;;;;;;;4.55;2.78;;;;;;;;;;4981131;28;20038;-70
2022/02/15 00:24:57;;;;;;;6.60;3.25;;;;;;;;;;4992597;28;20109;-71
2022/02/15 00:27:23;;;;;;;4.95;2.78;;;;;;;;;;4982110;28;20031;-70
2022/02/15 00:29:49;;;;;;;5.88;2.75;;;;;;;;;;4989270;28;20023;-71
2022/02/15 00:32:15;;;;;;;13.60;6.65;;;;;;;;;;4984434;28;20073;-70
2022/02/15 00:34:41;;;;;;;11.90;4.20;;;;;;;;;;4989587;28;20630;-70
2022/02/15 00:37:07;;;;;;;8.60;3.53;;;;;;;;;;4978146;28;20030;-70
2022/02/15 00:39:34;;;;;;;6.32;3.13;;;;;;;;;;4989729;28;20030;-71
2022/02/15 00:42:00;;;;;;;8.02;3.45;;;;;;;;;;4988705;28;20073;-71
2022/02/15 00:44:31;;;;;;;6.97;3.20;;;;;;;;;;4990685;28;20030;-71
2022/02/15 00:46:57;;;;;;;6.60;2.88;;;;;;;;;;4995050;28;20038;-71
2022/02/15 00:49:23;;;;;;;5.90;2.58;;;;;;;;;;4986609;28;20033;-70
2022/02/15 00:51:56;;;;;;;9.07;2.50;;;;;;;;;;4993000;28;20111;-72
2022/02/15 00:54:24;;;;;;;10.93;3.83;;;;;;;;;;4991671;28;20033;-70
2022/02/15 00:56:50;;;;;;;6.13;3.40;;;;;;;;;;4981118;28;20058;-70
2022/02/15 00:59:16;;;;;;;6.90;3.00;;;;;;;;;;5011514;28;20094;-71
2022/02/15 01:01:42;;;;;;;5.68;2.55;;;;;;;;;;4986189;28;20038;-70
2022/02/15 01:04:08;;;;;;;5.65;2.67;;;;;;;;;;4989664;28;20484;-70
2022/02/15 01:06:36;;;;;;;5.18;2.33;;;;;;;;;;4986662;28;20401;-70
2022/02/15 01:09:02;;;;;;;4.18;2.50;;;;;;;;;;4994048;28;20035;-70
2022/02/15 01:11:28;;;;;;;5.40;2.30;;;;;;;;;;4988034;28;20035;-70
2022/02/15 01:13:54;;;;;;;4.80;2.08;;;;;;;;;;4986965;28;20042;-70
2022/02/15 01:16:21;;;;;;;6.45;3.55;;;;;;;;;;4991383;28;20057;-70
2022/02/15 01:18:47;;;;;;;9.70;3.20;;;;;;;;;;4981079;28;20030;-70
2022/02/15 01:21:15;;;;;;;3.08;2.20;;;;;;;;;;4989922;28;20029;-71
2022/02/15 01:23:43;;;;;;;3.38;2.22;;;;;;;;;;4984692;28;20165;-70
2022/02/15 01:26:09;;;;;;;7.97;3.08;;;;;;;;;;4980360;28;20039;-70
2022/02/15 01:28:35;;;;;;;7.97;2.67;;;;;;;;;;4981685;28;20545;-71
2022/02/15 01:31:02;;;;;;;10.40;2.67;;;;;;;;;;4981978;28;20026;-70
2022/02/15 01:33:28;;;;;;;8.70;2.90;;;;;;;;;;4979504;28;20033;-70
2022/02/15 01:35:54;;;;;;;6.43;3.05;;;;;;;;;;4982416;28;20023;-70
2022/02/15 01:38:20;;;;;;;3.88;2.38;;;;;;;;;;4988475;28;20516;-70
2022/02/15 01:40:46;;;;;;;5.78;3.33;;;;;;;;;;4990323;28;20062;-70
2022/02/15 01:43:12;;;;;;;3.08;2.67;;;;;;;;;;4989959;28;20407;-70
2022/02/15 01:45:38;;;;;;;15.60;3.60;;;;;;;;;;4994041;28;20054;-69
2022/02/15 01:48:05;;;;;;;4.78;2.58;;;;;;;;;;4990030;28;20080;-70
2022/02/15 01:50:31;;;;;;;9.50;3.17;;;;;;;;;;5005664;28;20098;-71
2022/02/15 01:52:57;;;;;;;7.53;2.65;;;;;;;;;;4984059;28;20113;-71
2022/02/15 01:55:23;;;;;;;3.72;2.17;;;;;;;;;;4993481;28;20113;-70
2022/02/15 01:57:49;;;;;;;4.00;2.40;;;;;;;;;;4987042;28;20037;-69
2022/02/15 02:00:17;;;;;;;7.82;3.78;;;;;;;;;;4982278;28;20026;-70
2022/02/15 02:02:43;;;;;;;7.07;2.50;;;;;;;;;;4994537;28;20041;-70
2022/02/15 02:07:54;;;;;;;3.83;2.50;;;;;;;;;;4991965;28;20092;-70
2022/02/15 02:10:21;;;;;;;6.63;2.72;;;;;;;;;;4982551;28;20039;-71
2022/02/15 02:12:47;;;;;;;4.63;2.42;;;;;;;;;;4985356;28;20034;-71
2022/02/15 02:15:20;;;;;;;5.32;2.70;;;;;;;;;;4987992;28;20400;-71
2022/02/15 02:17:47;;;;;;;10.75;2.65;;;;;;;;;;4976246;28;20034;-72
2022/02/15 02:20:13;;;;;;;6.13;2.45;;;;;;;;;;4989472;28;20037;-72
2022/02/15 02:22:40;;;;;;;9.88;3.05;;;;;;;;;;4988134;28;20027;-70
2022/02/15 02:25:06;;;;;;;4.18;2.80;;;;;;;;;;4978810;28;20031;-71
2022/02/15 02:27:33;;;;;;;5.45;2.80;;;;;;;;;;4986942;28;20034;-71
2022/02/15 02:29:59;;;;;;;6.15;3.53;;;;;;;;;;4987524;28;20031;-73
2022/02/15 02:32:26;;;;;;;8.00;2.85;;;;;;;;;;4995329;28;20793;-70
2022/02/15 02:34:53;;;;;;;8.95;4.10;;;;;;;;;;4990472;28;20061;-73
2022/02/15 02:37:19;;;;;;;9.13;3.85;;;;;;;;;;4989267;28;20527;-71
2022/02/15 02:39:50;;;;;;;8.07;3.50;;;;;;;;;;4998945;28;20022;-72
2022/02/15 02:42:17;;;;;;;3.95;2.90;;;;;;;;;;4986375;28;20035;-73
2022/02/15 02:44:44;;;;;;;6.97;3.17;;;;;;;;;;4985632;28;20034;-72
2022/02/15 02:47:10;;;;;;;9.98;3.13;;;;;;;;;;4984946;28;20050;-73
2022/02/15 02:49:36;;;;;;;4.80;2.83;;;;;;;;;;4985381;28;20025;-73
2022/02/15 02:52:03;;;;;;;7.70;4.15;;;;;;;;;;4981798;28;20034;-73
2022/02/15 02:54:30;;;;;;;5.30;2.95;;;;;;;;;;4988122;28;20026;-72
2022/02/15 02:56:56;;;;;;;6.65;2.65;;;;;;;;;;4979667;28;20026;-72
2022/02/15 02:59:23;;;;;;;8.52;2.95;;;;;;;;;;4983815;28;20082;-72
2022/02/15 03:01:49;;;;;;;3.03;2.53;;;;;;;;;;5004244;28;20480;-72
2022/02/15 03:04:15;;;;;;;10.07;2.88;;;;;;;;;;4982151;28;20091;-73
2022/02/15 03:06:41;;;;;;;8.82;3.10;;;;;;;;;;5000126;28;20170;-73
2022/02/15 03:09:07;;;;;;;6.65;2.45;;;;;;;;;;4987802;28;20042;-72
2022/02/15 03:11:33;;;;;;;5.30;2.70;;;;;;;;;;4992220;28;20082;-73
2022/02/15 03:14:00;;;;;;;6.25;3.15;;;;;;;;;;4990165;28;20425;-72
2022/02/15 03:16:26;;;;;;;10.05;4.18;;;;;;;;;;4984166;28;20027;-73
2022/02/15 03:18:56;;;;;;;5.07;2.83;;;;;;;;;;4988992;28;20056;-73
2022/02/15 03:21:22;;;;;;;7.07;2.45;;;;;;;;;;4997594;28;20049;-72
2022/02/15 03:23:48;;;;;;;3.33;2.33;;;;;;;;;;4982353;28;20033;-72
2022/02/15 03:26:15;;;;;;;6.78;2.75;;;;;;;;;;4986925;28;20022;-72
2022/02/15 03:28:41;;;;;;;6.45;2.65;;;;;;;;;;4979778;28;20038;-72
2022/02/15 03:31:07;;;;;;;14.80;2.95;;;;;;;;;;4987894;28;20032;-71
2022/02/15 03:33:33;;;;;;;3.05;2.75;;;;;;;;;;4988100;28;20037;-72
2022/02/15 03:36:00;;;;;;;8.18;2.78;;;;;;;;;;4980002;28;20486;-73
2022/02/15 03:38:26;;;;;;;6.80;3.03;;;;;;;;;;4983995;28;20035;-73
2022/02/15 03:43:37;;;;;;;6.13;2.60;;;;;;;;;;4991213;28;20527;-73
2022/02/15 03:46:03;;;;;;;3.72;2.72;;;;;;;;;;4995566;28;20035;-72
2022/02/15 03:48:29;;;;;;;2.92;2.00;;;;;;;;;;4990785;28;20093;-73
2022/02/15 03:50:56;;;;;;;6.97;2.35;;;;;;;;;;4982701;28;20026;-71
2022/02/15 03:53:22;;;;;;;5.95;2.97;;;;;;;;;;4987097;28;20080;-71
2022/02/15 03:55:48;;;;;;;4.45;2.28;;;;;;;;;;4985795;28;20061;-73
2022/02/15 03:58:14;;;;;;;6.30;2.50;;;;;;;;;;4986899;28;20026;-72
2022/02/15 04:00:41;;;;;;;6.22;2.03;;;;;;;;;;4989779;28;20093;-72
2022/02/15 04:03:07;;;;;;;5.70;2.42;;;;;;;;;;4986424;28;20030;-72
2022/02/15 04:05:33;;;;;;;5.88;2.55;;;;;;;;;;4980472;28;20046;-73
2022/02/15 04:08:00;;;;;;;5.50;2.40;;;;;;;;;;4980079;28;20113;-73
2022/02/15 04:10:26;;;;;;;4.03;2.00;;;;;;;;;;4987485;28;20034;-72
2022/02/15 04:12:52;;;;;;;5.40;2.47;;;;;;;;;;4982201;28;20404;-72
2022/02/15 04:15:19;;;;;;;7.05;2.13;;;;;;;;;;4992281;28;20106;-72
2022/02/15 04:17:45;;;;;;;3.60;1.85;;;;;;;;;;4986085;28;20026;-73
2022/02/15 04:20:12;;;;;;;3.72;2.08;;;;;;;;;;4991419;28;20054;-72
2022/02/15 04:22:38;;;;;;;6.50;2.38;;;;;;;;;;4998289;28;20030;-72
2022/02/15 04:25:05;;;;;;;6.65;3.33;;;;;;;;;;4988053;28;20404;-72
2022/02/15 04:27:31;;;;;;;5.28;2.13;;;;;;;;;;4985565;28;20039;-72
2022/02/15 04:29:57;;;;;;;4.80;1.92;;;;;;;;;;4997146;28;20019;-72
2022/02/15 04:32:24;;;;;;;3.20;2.10;;;;;;;;;;4989996;28;20037;-72
2022/02/15 04:34:50;;;;;;;9.15;2.13;;;;;;;;;;4985022;28;20042;-72
2022/02/15 04:37:16;;;;;;;3.20;1.98;;;;;;;;;;4982293;28;20023;-72
2022/02/15 04:39:42;;;;;;;4.43;2.10;;;;;;;;;;4989462;28;20077;-72
2022/02/15 04:42:09;;;;;;;5.43;2.20;;;;;;;;;;4990203;28;20029;-72
2022/02/15 04:44:36;;;;;;;7.05;2.40;;;;;;;;;;4984176;28;20026;-72
2022/02/15 04:47:02;;;;;;;7.72;2.40;;;;;;;;;;4993657;28;20030;-72
2022/02/15 04:49:28;;;;;;;4.18;2.40;;;;;;;;;;4991222;28;20493;-73
2022/02/15 04:51:55;;;;;;;4.25;1.77;;;;;;;;;;4983964;28;20019;-71
2022/02/15 04:54:22;;;;;;;7.25;3.95;;;;;;;;;;5000289;28;20038;-72
2022/02/15 04:56:48;;;;;;;4.35;2.50;;;;;;;;;;4995273;28;20398;-72
2022/02/15 04:59:15;;;;;;;4.60;1.95;;;;;;;;;;4987347;28;20038;-72
2022/02/15 05:01:41;;;;;;;3.40;1.75;;;;;;;;;;4993106;28;20042;-72
2022/02/15 05:04:48;;;;;;;2.20;1.60;;;;;;;;;;4982059;28;20034;-71
2022/02/15 05:06:53;;;;;;;3.78;1.90;;;;;;;;;;4985624;28;20392;-71
2022/02/15 05:09:19;;;;;;;2.67;1.70;;;;;;;;;;4983745;28;20078;-72
2022/02/15 05:11:45;;;;;;;2.90;1.60;;;;;;;;;;4987674;28;20078;-72
2022/02/15 05:14:11;;;;;;;3.45;1.90;;;;;;;;;;4985645;28;20061;-72
2022/02/15 05:16:37;;;;;;;2.45;1.75;;;;;;;;;;4983051;28;20023;-73
2022/02/15 05:19:03;;;;;;;2.78;2.20;;;;;;;;;;4983554;28;20110;-71
2022/02/15 05:21:29;;;;;;;6.03;2.55;;;;;;;;;;5000423;28;20105;-72
2022/02/15 05:23:55;;;;;;;7.80;2.22;;;;;;;;;;5003526;28;20149;-71
2022/02/15 05:26:21;;;;;;;8.73;2.60;;;;;;;;;;4983422;28;20041;-73
2022/02/15 05:28:47;;;;;;;6.07;2.35;;;;;;;;;;4995598;28;20026;-72
2022/02/15 05:31:13;;;;;;;10.30;3.10;;;;;;;;;;4996604;28;20080;-72
2022/02/15 05:33:39;;;;;;;6.00;3.22;;;;;;;;;;4984112;28;20034;-71
2022/02/15 05:36:06;;;;;;;9.98;3.20;;;;;;;;;;4981543;28;20049;-72
2022/02/15 05:38:32;;;;;;;7.95;3.10;;;;;;;;;;4981918;28;20038;-72
2022/02/15 05:40:58;;;;;;;10.45;3.63;;;;;;;;;;4983738;28;20045;-72
2022/02/15 05:43:24;;;;;;;7.22;3.13;;;;;;;;;;4993245;28;20125;-71
2022/02/15 05:45:50;;;;;;;5.75;3.95;;;;;;;;;;4982804;28;20030;-73
2022/02/15 05:48:19;;;;;;;6.43;3.05;;;;;;;;;;4981881;28;20394;-72
2022/02/15 05:50:49;;;;;;;9.32;3.67;;;;;;;;;;4991185;28;20022;-72
2022/02/15 05:53:15;;;;;;;9.60;3.13;;;;;;;;;;4984672;28;20055;-72
2022/02/15 05:55:41;;;;;;;14.13;3.28;;;;;;;;;;4984945;28;20035;-73
2022/02/15 05:58:07;;;;;;;17.33;3.25;;;;;;;;;;5003434;28;20576;-70
2022/02/15 06:00:33;;;;;;;12.35;5.25;;;;;;;;;;4986562;28;20042;-71
2022/02/15 06:02:59;;;;;;;10.75;3.63;;;;;;;;;;5002403;28;20022;-72
2022/02/15 06:05:28;;;;;;;16.13;4.70;;;;;;;;;;4994092;28;20487;-71
2022/02/15 06:07:54;;;;;;;15.80;3.83;;;;;;;;;;4983557;28;20061;-71
2022/02/15 06:10:20;;;;;;;20.30;4.43;;;;;;;;;;4981747;28;20035;-73
2022/02/15 06:12:46;;;;;;;12.02;4.30;;;;;;;;;;4992992;28;20034;-72
2022/02/15 06:15:13;;;;;;;15.68;4.22;;;;;;;;;;4997289;28;20050;-72
2022/02/15 06:17:39;;;;;;;16.20;3.95;;;;;;;;;;4988485;28;20117;-73
2022/02/15 06:20:05;;;;;;;11.88;3.72;;;;;;;;;;4984192;28;20030;-71
2022/02/15 06:22:31;;;;;;;17.95;4.50;;;;;;;;;;4982117;28;20677;-72
2022/02/15 06:24:57;;;;;;;16.65;4.15;;;;;;;;;;4982862;28;20038;-72
2022/02/15 06:27:23;;;;;;;13.80;3.78;;;;;;;;;;5002847;28;20037;-72
2022/02/15 06:29:49;;;;;;;15.80;5.32;;;;;;;;;;4978100;28;20149;-71
2022/02/15 06:32:16;;;;;;;18.73;4.32;;;;;;;;;;4985747;28;20026;-72
2022/02/15 06:34:42;;;;;;;18.10;4.57;;;;;;;;;;4984590;28;20081;-72
2022/02/15 06:37:08;;;;;;;13.65;5.13;;;;;;;;;;4983849;28;20031;-72
2022/02/15 06:39:34;;;;;;;17.98;5.25;;;;;;;;;;4990606;28;20042;-71
2022/02/15 06:42:00;;;;;;;13.52;4.15;;;;;;;;;;4980322;28;20023;-72
2022/02/15 06:44:26;;;;;;;16.52;4.40;;;;;;;;;;4993235;28;20030;-72
2022/02/15 06:46:52;;;;;;;19.10;3.67;;;;;;;;;;4994415;28;20034;-72
2022/02/15 06:49:18;;;;;;;12.90;4.40;;;;;;;;;;4975063;28;20035;-72
2022/02/15 06:51:44;;;;;;;16.08;4.35;;;;;;;;;;4988954;28;20579;-72
2022/02/15 06:54:10;;;;;;;14.57;4.30;;;;;;;;;;4990809;28;20397;-73
2022/02/15 06:56:37;;;;;;;20.67;4.85;;;;;;;;;;4979029;28;20019;-72
2022/02/15 06:59:04;;;;;;;21.23;5.72;;;;;;;;;;4988353;28;20027;-72
2022/02/15 07:01:31;;;;;;;21.88;5.43;;;;;;;;;;4990907;28;20038;-71
2022/02/15 07:03:57;;;;;;;19.85;4.35;;;;;;;;;;4991868;28;20031;-71
2022/02/15 07:06:23;;;;;;;17.83;4.20;;;;;;;;;;4983554;28;20394;-72
2022/02/15 07:08:49;;;;;;;18.48;4.75;;;;;;;;;;4987936;28;20053;-72
2022/02/15 07:11:16;;;;;;;24.65;5.80;;;;;;;;;;4985655;28;20022;-72
2022/02/15 07:13:42;;;;;;;27.13;5.15;;;;;;;;;;4985876;28;20026;-72
2022/02/15 07:16:08;;;;;;;15.40;4.65;;;;;;;;;;4981958;28;20025;-72
2022/02/15 07:18:34;;;;;;;26.85;5.22;;;;;;;;;;4981424;28;20126;-71
2022/02/15 07:21:00;;;;;;;15.27;5.25;;;;;;;;;;4975552;28;20038;-72
2022/02/15 07:23:27;;;;;;;13.98;6.22;;;;;;;;;;4983934;28;20022;-71
2022/02/15 07:25:53;;;;;;;20.27;5.05;;;;;;;;;;4984383;28;20394;-73
2022/02/15 07:28:19;;;;;;;25.25;6.13;;;;;;;;;;4987378;28;20018;-71
2022/02/15 07:30:45;;;;;;;23.52;4.80;;;;;;;;;;4985006;28;20114;-73
2022/02/15 07:33:11;;;;;;;18.92;6.38;;;;;;;;;;4997289;28;20034;-71
2022/02/15 07:35:38;;;;;;;24.77;6.35;;;;;;;;;;4978060;28;20037;-72
2022/02/15 07:38:04;;;;;;;20.42;4.80;;;;;;;;;;4989263;28;20038;-72
2022/02/15 07:40:30;;;;;;;15.27;4.47;;;;;;;;;;4986554;28;20109;-71
2022/02/15 07:42:56;;;;;;;20.27;7.07;;;;;;;;;;4984280;28;20486;-72
2022/02/15 07:45:22;;;;;;;21.38;5.10;;;;;;;;;;4988007;28;20671;-72
2022/02/15 07:47:49;;;;;;;19.60;6.78;;;;;;;;;;4998709;28;20034;-72
2022/02/15 07:50:16;;;;;;;19.25;5.32;;;;;;;;;;5005373;28;20989;-72
2022/02/15 07:52:44;;;;;;;22.48;5.47;;;;;;;;;;4983355;28;20466;-72
2022/02/15 07:55:11;;;;;;;14.77;3.85;;;;;;;;;;4988234;28;20157;-72
2022/02/15 07:57:37;;;;;;;20.77;6.10;;;;;;;;;;4990723;28;20104;-73
2022/02/15 08:00:04;;;;;;;19.20;4.95;;;;;;;;;;4986042;28;20030;-71
2022/02/15 08:02:30;;;;;;;18.60;4.32;;;;;;;;;;4993244;28;20082;-72
2022/02/15 08:04:56;;;;;;;20.83;4.82;;;;;;;;;;4990015;28;20057;-72
2022/02/15 08:07:22;;;;;;;19.92;5.22;;;;;;;;;;4987012;28;20022;-72
2022/02/15 08:09:48;;;;;;;19.13;5.03;;;;;;;;;;4984805;28;20057;-71
2022/02/15 08:12:17;;;;;;;22.17;5.78;;;;;;;;;;4983213;28;20038;-73
2022/02/15 08:14:47;;;;;;;12.90;3.50;;;;;;;;;;4986820;28;20034;-73
2022/02/15 08:17:13;;;;;;;12.82;5.18;;;;;;;;;;4984303;28;20034;-73
2022/02/15 08:19:40;;;;;;;18.50;4.43;;;;;;;;;;5001424;28;20053;-73
2022/02/15 08:22:06;;;;;;;17.40;7.00;;;;;;;;;;4980751;28;20109;-72
2022/02/15 08:24:32;;;;;;;18.85;5.07;;;;;;;;;;4977193;28;20035;-72
2022/02/15 08:27:00;;;;;;;18.10;4.93;;;;;;;;;;4981655;28;20031;-73
2022/02/15 08:29:27;;;;;;;13.98;4.07;;;;;;;;;;4977450;28;20030;-72
2022/02/15 08:31:54;;;;;;;18.08;4.38;;;;;;;;;;4986053;28;20024;-72
2022/02/15 08:34:20;;;;;;;13.50;4.30;;;;;;;;;;4986789;28;20027;-74
2022/02/15 08:36:46;;;;;;;24.52;5.88;;;;;;;;;;4982085;28;20042;-73
2022/02/15 08:39:15;;;;;;;14.45;4.40;;;;;;;;;;4989033;28;20073;-72
2022/02/15 08:41:41;;;;;;;15.15;5.10;;;;;;;;;;4993500;28;20042;-73
2022/02/15 08:44:07;;;;;;;12.73;4.72;;;;;;;;;;4978546;28;20035;-72
2022/02/15 08:46:33;;;;;;;19.95;5.57;;;;;;;;;;4983621;28;20023;-73
2022/02/15 08:48:59;;;;;;;21.58;5.00;;;;;;;;;;4987578;28;20026;-72
2022/02/15 08:51:25;;;;;;;13.18;4.07;;;;;;;;;;4978981;28;20066;-73
2022/02/15 08:53:52;;;;;;;14.25;4.07;;;;;;;;;;4994345;28;20034;-72
2022/02/15 08:56:19;;;;;;;14.38;4.22;;;;;;;;;;4981615;28;20035;-72
2022/02/15 08:58:47;;;;;;;16.75;5.78;;;;;;;;;;4984014;28;20030;-73
2022/02/15 09:01:13;;;;;;;18.60;6.43;;;;;;;;;;4987488;28;20037;-73
2022/02/15 09:03:39;;;;;;;17.38;5.43;;;;;;;;;;4997231;28;20026;-72
2022/02/15 09:06:05;;;;;;;18.02;4.82;;;;;;;;;;4979624;28;20101;-72
2022/02/15 09:08:32;;;;;;;19.20;4.28;;;;;;;;;;4998843;28;20228;-73
2022/02/15 09:10:58;;;;;;;12.13;4.93;;;;;;;;;;4985798;28;20035;-73
2022/02/15 09:13:24;;;;;;;21.65;5.65;;;;;;;;;;4987970;28;20393;-72
2022/02/15 09:15:50;;;;;;;22.17;5.20;;;;;;;;;;4992647;28;20039;-73
2022/02/15 09:18:16;;;;;;;23.42;5.45;;;;;;;;;;4985580;28;20034;-72
2022/02/15 09:20:43;;;;;;;19.45;4.68;;;;;;;;;;4984894;28;20058;-73
2022/02/15 09:23:09;;;;;;;19.27;5.10;;;;;;;;;;4989732;28;20026;-73
2022/02/15 09:25:36;;;;;;;20.13;5.57;;;;;;;;;;4987371;28;20026;-70
2022/02/15 09:28:02;;;;;;;18.85;5.25;;;;;;;;;;4987086;28;20489;-72
2022/02/15 09:30:28;;;;;;;16.52;5.05;;;;;;;;;;4990510;28;20050;-72
2022/02/15 09:32:54;;;;;;;22.60;5.20;;;;;;;;;;4990054;28;20380;-72
2022/02/15 09:35:21;;;;;;;18.80;5.10;;;;;;;;;;4990597;28;20048;-73
2022/02/15 09:37:47;;;;;;;21.85;5.75;;;;;;;;;;4983245;28;20019;-72
2022/02/15 09:40:13;;;;;;;19.83;4.63;;;;;;;;;;4982400;28;20045;-71
2022/02/15 09:42:40;;;;;;;17.58;4.85;;;;;;;;;;4994950;28;20493;-73
2022/02/15 09:45:07;;;;;;;19.77;5.20;;;;;;;;;;4992064;28;20065;-72
2022/02/15 09:47:34;;;;;;;16.17;4.57;;;;;;;;;;4987962;28;20030;-72
2022/02/15 09:50:05;;;;;;;22.33;4.95;;;;;;;;;;4982708;28;20113;-71
2022/02/15 09:52:31;;;;;;;20.45;5.10;;;;;;;;;;5006619;28;20039;-72
2022/02/15 09:54:57;;;;;;;21.70;5.47;;;;;;;;;;4986724;28;20042;-72
2022/02/15 09:57:24;;;;;;;19.95;5.35;;;;;;;;;;4985824;28;20022;-71
2022/02/15 09:59:51;;;;;;;21.00;4.90;;;;;;;;;;4987776;28;20030;-73
2022/02/15 10:02:31;;;;;;;23.15;4.78;;;;;;;;;;4991964;28;20022;-73
2022/02/15 10:04:58;;;;;;;21.38;5.05;;;;;;;;;;4989077;28;20030;-72
2022/02/15 10:07:25;;;;;;;16.30;5.07;;;;;;;;;;4988069;28;20026;-73
2022/02/15 10:09:52;;;;;;;21.38;5.25;;;;;;;;;;4988376;28;20034;-72
2022/02/15 10:12:18;;;;;;;12.52;4.60;;;;;;;;;;4986857;28;20022;-72
2022/02/15 10:14:46;;;;;;;16.27;4.50;;;;;;;;;;4992561;28;20559;-72
2022/02/15 10:17:14;;;;;;;18.02;4.47;;;;;;;;;;4989000;28;20031;-72
2022/02/15 10:19:40;;;;;;;16.27;4.55;;;;;;;;;;4992587;28;20113;-72
2022/02/15 10:22:07;;;;;;;16.30;5.78;;;;;;;;;;4989794;28;20411;-72
2022/02/15 10:24:34;;;;;;;20.27;6.32;;;;;;;;;;4990154;28;20453;-72
2022/02/15 10:27:01;;;;;;;23.55;4.60;;;;;;;;;;4989031;28;20048;-70
2022/02/15 10:29:29;;;;;;;21.98;5.13;;;;;;;;;;4988187;28;20031;-73
2022/02/15 10:31:56;;;;;;;19.95;4.20;;;;;;;;;;4993588;28;20026;-73
2022/02/15 10:34:22;;;;;;;13.00;4.07;;;;;;;;;;5002363;28;20122;-72
2022/02/15 10:37:05;;;;;;;13.88;5.93;;;;;;;;;;4991009;28;20519;-69
2022/02/15 10:39:57;;;;;;;19.27;4.10;;;;;;;;;;4991105;28;20022;-72
2022/02/15 10:42:25;;;;;;;18.50;4.57;;;;;;;;;;4988279;28;20049;-71
2022/02/15 10:44:52;;;;;;;20.52;5.38;;;;;;;;;;4988862;28;20030;-72
2022/02/15 10:47:20;;;;;;;24.35;4.68;;;;;;;;;;4988413;28;20022;-73
2022/02/15 10:49:46;;;;;;;21.50;5.32;;;;;;;;;;4987501;28;20030;-74
2022/02/15 10:52:13;;;;;;;18.75;6.30;;;;;;;;;;4989698;28;20034;-73
2022/02/15 10:54:39;;;;;;;17.05;4.80;;;;;;;;;;4986125;28;20034;-71
2022/02/15 10:57:07;;;;;;;20.80;5.60;;;;;;;;;;4992201;28;20035;-73
2022/02/15 10:59:34;;;;;;;13.13;4.97;;;;;;;;;;4993677;28;22270;-72
2022/02/15 11:02:01;;;;;;;14.68;3.90;;;;;;;;;;4992708;28;20366;-71
2022/02/15 11:04:30;;;;;;;13.85;4.40;;;;;;;;;;4985251;28;20033;-73
2022/02/15 11:06:57;;;;;;;14.65;5.38;;;;;;;;;;4999551;28;20502;-72
2022/02/15 11:09:27;;;;;;;13.68;5.45;;;;;;;;;;4992688;28;20037;-72
2022/02/15 11:12:02;;;;;;;14.25;4.18;;;;;;;;;;4987606;28;20022;-73
2022/02/15 11:14:28;;;;;;;23.10;4.90;;;;;;;;;;4984281;28;20030;-73
2022/02/15 11:16:54;;;;;;;20.73;4.78;;;;;;;;;;4983840;28;20121;-73
2022/02/15 11:19:21;;;;;;;16.83;4.57;;;;;;;;;;4980316;28;20038;-73
2022/02/15 11:21:54;;;;;;;10.50;3.72;;;;;;;;;;4989057;28;20026;-73
2022/02/15 11:24:20;;;;;;;11.90;3.95;;;;;;;;;;4983951;28;20038;-73
2022/02/15 11:26:47;;;;;;;15.02;3.75;;;;;;;;;;4985017;28;20035;-73
2022/02/15 11:29:20;;;;;;;17.10;4.45;;;;;;;;;;5002000;28;20385;-73
2022/02/15 11:31:46;;;;;;;16.42;3.70;;;;;;;;;;4988031;28;20018;-72
2022/02/15 11:34:13;;;;;;;14.55;4.72;;;;;;;;;;4986460;28;20034;-73
2022/02/15 11:36:46;;;;;;;14.15;4.53;;;;;;;;;;4987769;28;20038;-73
2022/02/15 11:39:17;;;;;;;19.67;3.92;;;;;;;;;;4997104;28;20074;-72
2022/02/15 11:41:46;;;;;;;13.43;4.93;;;;;;;;;;4997648;28;20030;-73
2022/02/15 11:44:12;;;;;;;22.65;5.28;;;;;;;;;;4981504;28;20035;-73
2022/02/15 11:46:46;;;;;;;15.48;5.18;;;;;;;;;;4987767;28;20038;-73
2022/02/15 11:49:19;;;;;;;15.90;4.30;;;;;;;;;;4983436;28;20027;-73
2022/02/15 11:51:46;;;;;;;32.00;8.10;;;;;;;;;;4987837;28;20408;-73
2022/02/15 11:54:13;;;;;;;15.88;4.88;;;;;;;;;;4987927;28;20583;-71
2022/02/15 11:56:39;;;;;;;17.40;5.78;;;;;;;;;;4987070;28;20439;-72
2022/02/15 11:59:14;;;;;;;11.73;5.00;;;;;;;;;;4985376;28;20481;-72
2022/02/15 12:01:42;;;;;;;14.90;5.13;;;;;;;;;;4994801;28;20485;-71
2022/02/15 12:04:10;;;;;;;23.23;4.60;;;;;;;;;;4974975;28;20034;-72
2022/02/15 12:06:41;;;;;;;17.35;4.20;;;;;;;;;;4989071;28;20052;-72
2022/02/15 12:09:08;;;;;;;11.32;4.05;;;;;;;;;;4983827;28;20042;-72
2022/02/15 12:11:36;;;;;;;18.75;4.82;;;;;;;;;;4993323;28;20037;-74
2022/02/15 12:14:06;;;;;;;18.50;4.97;;;;;;;;;;4994368;28;21569;-73
2022/02/15 12:16:40;;;;;;;11.45;4.07;;;;;;;;;;4985024;28;20039;-73
2022/02/15 12:19:07;;;;;;;15.63;4.40;;;;;;;;;;4979069;28;20023;-73
2022/02/15 12:21:42;;;;;;;24.17;4.50;;;;;;;;;;4986116;28;20516;-73
2022/02/15 12:24:09;;;;;;;12.85;3.90;;;;;;;;;;4976929;28;20129;-72
2022/02/15 12:26:39;;;;;;;16.70;4.25;;;;;;;;;;4991199;28;20069;-72
2022/02/15 12:29:05;;;;;;;14.80;4.18;;;;;;;;;;4982274;28;20022;-72
2022/02/15 12:31:31;;;;;;;12.02;4.03;;;;;;;;;;4983616;28;20031;-71
2022/02/15 12:33:58;;;;;;;15.88;4.28;;;;;;;;;;4988302;28;20190;-72
2022/02/15 12:36:24;;;;;;;17.08;5.53;;;;;;;;;;4994615;28;20049;-73
2022/02/15 12:38:53;;;;;;;22.05;6.95;;;;;;;;;;4982040;28;20077;-72
2022/02/15 12:41:20;;;;;;;17.98;4.35;;;;;;;;;;4986279;28;20035;-73
2022/02/15 12:43:47;;;;;;;20.98;6.65;;;;;;;;;;4987811;28;20085;-73
2022/02/15 12:46:14;;;;;;;13.30;4.82;;;;;;;;;;4988063;28;20109;-72
2022/02/15 12:48:42;;;;;;;15.00;5.13;;;;;;;;;;4983458;28;20493;-71
2022/02/15 12:51:08;;;;;;;15.68;4.43;;;;;;;;;;4991341;28;20500;-72
2022/02/15 12:53:34;;;;;;;17.35;4.07;;;;;;;;;;4982015;28;20540;-72
2022/02/15 12:56:06;;;;;;;14.63;5.15;;;;;;;;;;4979241;28;20385;-73
2022/02/15 12:58:33;;;;;;;12.55;3.92;;;;;;;;;;4982235;28;20023;-73
2022/02/15 13:00:59;;;;;;;16.55;5.82;;;;;;;;;;4993371;28;20042;-72
2022/02/15 13:03:25;;;;;;;16.85;3.70;;;;;;;;;;4995397;28;20031;-73
2022/02/15 13:05:52;;;;;;;14.73;3.80;;;;;;;;;;4991336;28;20054;-73
2022/02/15 13:08:19;;;;;;;11.52;3.70;;;;;;;;;;4986601;28;20035;-72
2022/02/15 13:10:57;;;;;;;12.77;4.97;;;;;;;;;;4985787;28;20031;-73
2022/02/15 13:13:27;;;;;;;8.07;3.38;;;;;;;;;;4996811;28;20032;-73
2022/02/15 13:15:56;;;;;;;19.33;4.68;;;;;;;;;;4986578;28;20046;-73
2022/02/15 13:18:22;;;;;;;21.15;4.75;;;;;;;;;;5001009;28;20030;-72
2022/02/15 13:20:52;;;;;;;14.82;4.30;;;;;;;;;;4984996;28;20031;-73
2022/02/15 13:23:18;;;;;;;12.20;4.15;;;;;;;;;;4991680;28;20037;-71
2022/02/15 13:25:49;;;;;;;16.15;3.60;;;;;;;;;;4998978;28;20023;-72
2022/02/15 13:28:16;;;;;;;19.52;5.63;;;;;;;;;;4987468;28;20034;-72
2022/02/15 13:30:43;;;;;;;9.95;4.10;;;;;;;;;;4987784;28;20027;-72
2022/02/15 13:33:10;;;;;;;17.02;4.38;;;;;;;;;;4985176;28;20121;-73
2022/02/15 13:35:45;;;;;;;17.98;5.15;;;;;;;;;;4989342;28;20762;-72
2022/02/15 13:38:13;;;;;;;22.38;3.88;;;;;;;;;;4989073;28;20035;-73
2022/02/15 13:40:41;;;;;;;10.07;3.45;;;;;;;;;;4994449;28;20026;-73
2022/02/15 13:43:07;;;;;;;14.68;3.85;;;;;;;;;;4995236;28;20808;-74
2022/02/15 13:45:34;;;;;;;10.68;3.33;;;;;;;;;;4996513;28;20110;-72
2022/02/15 13:48:00;;;;;;;11.02;3.58;;;;;;;;;;4990822;28;20370;-74
2022/02/15 13:50:29;;;;;;;15.95;4.00;;;;;;;;;;4992730;28;20108;-74
2022/02/15 13:52:55;;;;;;;13.70;4.22;;;;;;;;;;4996466;28;20044;-72
2022/02/15 13:55:22;;;;;;;12.73;3.83;;;;;;;;;;4994470;28;20033;-73
2022/02/15 13:57:48;;;;;;;17.30;3.50;;;;;;;;;;4993139;28;20019;-72
2022/02/15 14:00:15;;;;;;;12.40;4.32;;;;;;;;;;5002599;28;20056;-75
2022/02/15 14:02:42;;;;;;;11.13;3.67;;;;;;;;;;4997584;28;20043;-74
2022/02/15 14:05:10;;;;;;;16.83;4.15;;;;;;;;;;4985690;28;20090;-73
2022/02/15 14:07:37;;;;;;;17.63;5.15;;;;;;;;;;4984048;28;20034;-72
2022/02/15 14:10:03;;;;;;;12.75;4.82;;;;;;;;;;4985749;28;20066;-73
2022/02/15 14:12:31;;;;;;;13.07;4.55;;;;;;;;;;4992984;28;20027;-72
2022/02/15 14:14:58;;;;;;;18.88;5.20;;;;;;;;;;4987210;28;20077;-73
2022/02/15 14:17:46;;;;;;;20.23;5.35;;;;;;;;;;4985918;28;20033;-74
2022/02/15 14:20:12;;;;;;;15.65;4.40;;;;;;;;;;4990915;28;20128;-73
2022/02/15 14:22:40;;;;;;;19.30;7.20;;;;;;;;;;4984834;28;20113;-72
2022/02/15 14:25:07;;;;;;;20.48;3.80;;;;;;;;;;5001039;28;20091;-72
2022/02/15 14:27:34;;;;;;;11.50;3.67;;;;;;;;;;5002999;28;20063;-72
2022/02/15 14:30:00;;;;;;;9.77;4.35;;;;;;;;;;4997111;28;20029;-72
2022/02/15 14:32:26;;;;;;;14.07;4.05;;;;;;;;;;4987752;28;20027;-72
2022/02/15 14:34:53;;;;;;;14.75;4.35;;;;;;;;;;4983548;28;20409;-73
2022/02/15 14:37:19;;;;;;;18.08;4.10;;;;;;;;;;4988721;28;20377;-72
2022/02/15 14:39:45;;;;;;;18.50;5.05;;;;;;;;;;4982914;28;20038;-72